sensor_id;sensor_type;location;lat;lon;timestamp;P1;durP1;ratioP1;P2;durP2;ratioP2
71902;SDS011;59778;50.310;18.780;2022-08-19T00:02:17;15.30;;;9.30;;
71902;SDS011;59778;50.310;18.780;2022-08-19T00:17:40;16.70;;;9.60;;
71902;SDS011;59778;50.310;18.780;2022-08-19T00:33:03;15.53;;;10.20;;
71902;SDS011;59778;50.310;18.780;2022-08-19T00:48:24;15.80;;;10.07;;
71902;SDS011;59778;50.310;18.780;2022-08-19T01:03:45;14.90;;;10.50;;
71902;SDS011;59778;50.310;18.780;2022-08-19T01:19:10;16.17;;;10.80;;
71902;SDS011;59778;50.310;18.780;2022-08-19T01:34:39;17.23;;;11.63;;
71902;SDS011;59778;50.310;18.780;2022-08-19T01:50:00;16.17;;;11.10;;
71902;SDS011;59778;50.310;18.780;2022-08-19T02:05:22;18.33;;;12.47;;
71902;SDS011;59778;50.310;18.780;2022-08-19T02:20:43;17.17;;;11.73;;
71902;SDS011;59778;50.310;18.780;2022-08-19T02:36:05;18.40;;;12.53;;
71902;SDS011;59778;50.310;18.780;2022-08-19T02:51:34;18.03;;;11.93;;
71902;SDS011;59778;50.310;18.780;2022-08-19T03:06:57;16.30;;;11.93;;
71902;SDS011;59778;50.310;18.780;2022-08-19T03:22:18;23.67;;;13.43;;
71902;SDS011;59778;50.310;18.780;2022-08-19T03:37:40;20.97;;;12.40;;
71902;SDS011;59778;50.310;18.780;2022-08-19T03:53:01;17.40;;;12.43;;
71902;SDS011;59778;50.310;18.780;2022-08-19T04:08:24;17.00;;;12.57;;
71902;SDS011;59778;50.310;18.780;2022-08-19T04:23:45;21.63;;;12.23;;
71902;SDS011;59778;50.310;18.780;2022-08-19T04:39:09;19.30;;;12.73;;
71902;SDS011;59778;50.310;18.780;2022-08-19T04:54:36;19.33;;;12.80;;
71902;SDS011;59778;50.310;18.780;2022-08-19T05:09:57;17.83;;;12.40;;
71902;SDS011;59778;50.310;18.780;2022-08-19T05:25:19;18.23;;;11.53;;
71902;SDS011;59778;50.310;18.780;2022-08-19T05:40:41;16.63;;;12.00;;
71902;SDS011;59778;50.310;18.780;2022-08-19T05:56:11;18.23;;;12.20;;
71902;SDS011;59778;50.310;18.780;2022-08-19T06:11:38;17.37;;;11.63;;
71902;SDS011;59778;50.310;18.780;2022-08-19T06:27:02;17.80;;;11.73;;
71902;SDS011;59778;50.310;18.780;2022-08-19T06:42:26;19.37;;;11.37;;
71902;SDS011;59778;50.310;18.780;2022-08-19T06:57:47;19.23;;;11.13;;
71902;SDS011;59778;50.310;18.780;2022-08-19T07:13:08;18.20;;;11.33;;
71902;SDS011;59778;50.310;18.780;2022-08-19T07:28:29;16.73;;;10.77;;
71902;SDS011;59778;50.310;18.780;2022-08-19T07:43:51;15.20;;;10.80;;
71902;SDS011;59778;50.310;18.780;2022-08-19T07:59:13;25.90;;;11.10;;
71902;SDS011;59778;50.310;18.780;2022-08-19T08:14:44;19.63;;;10.50;;
71902;SDS011;59778;50.310;18.780;2022-08-19T08:30:09;14.93;;;9.60;;
71902;SDS011;59778;50.310;18.780;2022-08-19T08:45:41;17.87;;;9.40;;
71902;SDS011;59778;50.310;18.780;2022-08-19T09:01:11;20.17;;;10.17;;
71902;SDS011;59778;50.310;18.780;2022-08-19T09:16:32;14.07;;;10.00;;
71902;SDS011;59778;50.310;18.780;2022-08-19T09:31:54;16.00;;;9.93;;
71902;SDS011;59778;50.310;18.780;2022-08-19T09:47:16;17.57;;;9.87;;
71902;SDS011;59778;50.310;18.780;2022-08-19T10:02:37;15.63;;;10.13;;
71902;SDS011;59778;50.310;18.780;2022-08-19T10:17:58;19.87;;;10.00;;
71902;SDS011;59778;50.310;18.780;2022-08-19T10:33:20;15.50;;;8.37;;
71902;SDS011;59778;50.310;18.780;2022-08-19T10:48:41;13.60;;;7.33;;
71902;SDS011;59778;50.310;18.780;2022-08-19T11:04:04;12.53;;;8.13;;
71902;SDS011;59778;50.310;18.780;2022-08-19T11:19:25;12.60;;;7.87;;
71902;SDS011;59778;50.310;18.780;2022-08-19T11:34:46;14.13;;;7.70;;
71902;SDS011;59778;50.310;18.780;2022-08-19T11:50:09;14.97;;;6.97;;
71902;SDS011;59778;50.310;18.780;2022-08-19T12:05:30;13.97;;;7.70;;
71902;SDS011;59778;50.310;18.780;2022-08-19T12:20:52;15.50;;;8.23;;
71902;SDS011;59778;50.310;18.780;2022-08-19T12:36:15;13.13;;;7.37;;
71902;SDS011;59778;50.310;18.780;2022-08-19T12:51:38;16.00;;;7.40;;
71902;SDS011;59778;50.310;18.780;2022-08-19T13:06:59;12.27;;;6.80;;
71902;SDS011;59778;50.310;18.780;2022-08-19T13:22:20;15.07;;;6.73;;
71902;SDS011;59778;50.310;18.780;2022-08-19T13:37:42;17.03;;;7.37;;
71902;SDS011;59778;50.310;18.780;2022-08-19T13:53:04;11.43;;;6.63;;
71902;SDS011;59778;50.310;18.780;2022-08-19T14:08:25;12.47;;;6.00;;
71902;SDS011;59778;50.310;18.780;2022-08-19T14:23:48;15.43;;;5.50;;
71902;SDS011;59778;50.310;18.780;2022-08-19T14:39:09;12.70;;;6.27;;
71902;SDS011;59778;50.310;18.780;2022-08-19T14:54:30;18.67;;;7.57;;
71902;SDS011;59778;50.310;18.780;2022-08-19T15:09:52;13.73;;;6.33;;
71902;SDS011;59778;50.310;18.780;2022-08-19T15:25:15;16.90;;;6.50;;
71902;SDS011;59778;50.310;18.780;2022-08-19T15:40:39;16.43;;;6.00;;
71902;SDS011;59778;50.310;18.780;2022-08-19T15:56:02;18.07;;;7.13;;
71902;SDS011;59778;50.310;18.780;2022-08-19T16:11:24;17.07;;;7.37;;
71902;SDS011;59778;50.310;18.780;2022-08-19T16:26:53;17.10;;;7.53;;
71902;SDS011;59778;50.310;18.780;2022-08-19T16:42:14;18.27;;;7.50;;
71902;SDS011;59778;50.310;18.780;2022-08-19T16:57:35;18.13;;;8.00;;
71902;SDS011;59778;50.310;18.780;2022-08-19T17:12:57;18.10;;;9.90;;
71902;SDS011;59778;50.310;18.780;2022-08-19T17:28:20;13.50;;;6.60;;
71902;SDS011;59778;50.310;18.780;2022-08-19T17:43:47;13.40;;;4.97;;
71902;SDS011;59778;50.310;18.780;2022-08-19T17:59:09;15.00;;;6.90;;
71902;SDS011;59778;50.310;18.780;2022-08-19T18:14:32;16.03;;;6.07;;
71902;SDS011;59778;50.310;18.780;2022-08-19T18:29:55;16.07;;;7.90;;
71902;SDS011;59778;50.310;18.780;2022-08-19T18:45:18;20.37;;;7.60;;
71902;SDS011;59778;50.310;18.780;2022-08-19T19:00:58;16.53;;;7.77;;
71902;SDS011;59778;50.310;18.780;2022-08-19T19:16:23;15.93;;;7.77;;
71902;SDS011;59778;50.310;18.780;2022-08-19T19:31:44;13.57;;;7.60;;
71902;SDS011;59778;50.310;18.780;2022-08-19T19:47:05;17.13;;;9.60;;
71902;SDS011;59778;50.310;18.780;2022-08-19T20:02:27;17.93;;;9.07;;
71902;SDS011;59778;50.310;18.780;2022-08-19T20:17:48;19.97;;;9.20;;
71902;SDS011;59778;50.310;18.780;2022-08-19T20:33:10;19.93;;;8.47;;
71902;SDS011;59778;50.310;18.780;2022-08-19T20:48:31;19.43;;;9.23;;
71902;SDS011;59778;50.310;18.780;2022-08-19T21:03:52;19.23;;;9.73;;
71902;SDS011;59778;50.310;18.780;2022-08-19T21:19:13;33.80;;;17.40;;
71902;SDS011;59778;50.310;18.780;2022-08-19T21:34:35;26.90;;;14.50;;
71902;SDS011;59778;50.310;18.780;2022-08-19T21:49:57;24.67;;;13.10;;
71902;SDS011;59778;50.310;18.780;2022-08-19T22:05:18;22.30;;;10.90;;
71902;SDS011;59778;50.310;18.780;2022-08-19T22:20:44;19.27;;;10.40;;
71902;SDS011;59778;50.310;18.780;2022-08-19T22:36:05;17.77;;;9.20;;
71902;SDS011;59778;50.310;18.780;2022-08-19T22:51:27;18.30;;;9.70;;
71902;SDS011;59778;50.310;18.780;2022-08-19T23:07:07;19.93;;;10.33;;
71902;SDS011;59778;50.310;18.780;2022-08-19T23:22:29;22.23;;;11.77;;
71902;SDS011;59778;50.310;18.780;2022-08-19T23:37:50;21.07;;;11.57;;
71902;SDS011;59778;50.310;18.780;2022-08-19T23:53:11;21.67;;;11.77;;
